COMO2: Grand River, Commerce, OK

                                SHEF ID:       COMO2     Neosho River nr Commerce, OK
STATION TYPE:
Regulating: Stage = 15.00, Flow = 21598

PRECIP STAGE STAGE(2) RIV-FLOW BAT-LOAD
in ft ft cfs volt
Ccp-Rev Ccp-Rev Ccp-Rev Ccp-Rev Ccp-Rev
(America/Chicago)
02/20 00:00 0.00 4.60 ---- 3344 12.34
02/20 01:00 0.00 4.69 ---- 3488 12.31
02/20 02:00 0.00 4.75 ---- 3591 12.30
02/20 03:00 0.00 4.82 ---- 3712 12.27
02/20 04:00 0.00 4.88 ---- 3815 12.27
02/20 05:00 0.00 4.94 ---- 3918 12.24
02/20 06:00 0.00 4.99 ---- 4004 12.21
02/20 07:00 0.00 5.03 ---- 4073 12.21
02/20 08:00 0.00 5.07 ---- 4141 12.37
02/20 09:00 0.00 5.10 ---- 4193 13.09
02/20 10:00 0.00 5.12 ---- 4227 13.37
02/20 11:00 0.00 5.15 ---- 4279 13.39
02/20 12:00 0.00 5.17 ---- 4314 13.26
02/20 13:00 0.00 5.18 ---- 4331 13.18
02/20 14:00 0.00 5.19 ---- 4348 13.14
02/20 15:00 0.00 5.20 ---- 4365 13.09
02/20 16:00 0.00 5.21 ---- 4382 13.06
02/20 17:00 0.00 5.22 ---- 4400 13.00
02/20 18:00 0.00 5.22 ---- 4400 12.87
02/20 19:00 0.00 5.22 ---- 4400 12.63
02/20 20:00 0.00 5.22 ---- 4400 12.49
02/20 21:00 0.00 5.23 ---- 4417 12.41
02/20 22:00 0.00 5.23 ---- 4417 12.37
02/20 23:00 0.00 5.22 ---- 4400 12.36
Data processed at Sat 21Feb2026 05:36 GMT

NOTICE: If you are parsing this page

Please convert to using our Data API. Starting early 2026 we will be migrating to: https://water.usace.army.mil with modern pages rendered in JavaScript. When this migration completes you will no longer be able to scrape this page! CWMSDataAPI (CDA)

Timeseries IDs (TSIDs)

TSIDs used from left to right in the data table
COMM.Precip-Inc.Total.1Hour.1Hour.Ccp-Rev
COMM.Stage.Inst.1Hour.0.Ccp-Rev
COMM.Stage-Alt.Inst.1Hour.0.Ccp-Rev
COMM.Flow.Inst.1Hour.0.Ccp-Rev
COMM.Volt-Battery Load.Inst.1Hour.0.Ccp-Rev

                            

All information presented herein is the property of the government of the United States of America and may be revised or deleted at any time without prior notice. Dissemination of this information without the expressed written consent of the Public Affairs Office, Tulsa District U.S. Army Corps of Engineers is strictly prohibited. These data are gathered electronically and, as presented, have NOT undergone any form of quality control. These data are NOT guaranteed to be valid or correct.